createdAt,value
2022-12-01T00:01:02.318Z,0.63
2022-12-01T00:03:32.259Z,0.64
2022-12-01T00:06:02.767Z,0.74
2022-12-01T00:08:29.585Z,0.77
2022-12-01T00:11:05.360Z,0.74
2022-12-01T00:13:32.097Z,0.78
2022-12-01T00:15:58.687Z,0.63
2022-12-01T00:18:25.156Z,0.65
2022-12-01T00:20:56.137Z,0.56
2022-12-01T00:23:23.279Z,0.88
2022-12-01T00:25:49.969Z,0.53
2022-12-01T00:28:16.509Z,0.61
2022-12-01T00:30:43.004Z,0.56
2022-12-01T00:33:09.432Z,0.66
2022-12-01T00:35:35.823Z,0.87
2022-12-01T00:38:02.217Z,0.91
2022-12-01T00:40:30.676Z,0.73
2022-12-01T00:42:57.212Z,0.38
2022-12-01T00:45:23.638Z,0.58
2022-12-01T00:47:52.518Z,0.51
2022-12-01T00:50:18.969Z,0.52
2022-12-01T00:52:45.446Z,0.64
2022-12-01T00:55:14.465Z,0.59
2022-12-01T00:57:41.264Z,0.46
2022-12-01T01:00:07.997Z,0.39
2022-12-01T01:02:34.451Z,0.50
2022-12-01T01:05:00.804Z,0.45
2022-12-01T01:07:27.268Z,0.43
2022-12-01T01:09:53.674Z,0.47
2022-12-01T01:12:20.297Z,0.46
2022-12-01T01:14:46.708Z,0.60
2022-12-01T01:17:13.169Z,0.58
2022-12-01T01:19:39.586Z,0.62
2022-12-01T01:22:06.025Z,0.64
2022-12-01T01:24:32.366Z,0.56
2022-12-01T01:26:59.176Z,0.55
2022-12-01T01:29:25.626Z,0.55
2022-12-01T01:31:52.127Z,0.69
2022-12-01T01:34:18.497Z,0.51
2022-12-01T01:36:44.896Z,0.71
2022-12-01T01:39:11.219Z,0.55
2022-12-01T01:41:37.604Z,0.42
2022-12-01T01:44:04.064Z,0.31
2022-12-01T01:46:31.986Z,0.38
2022-12-01T01:49:00.364Z,0.33
2022-12-01T01:51:29.695Z,0.38
2022-12-01T01:53:58.867Z,0.41
2022-12-01T01:56:25.340Z,0.49
2022-12-01T01:58:52.731Z,0.57
2022-12-01T02:01:19.337Z,0.26
2022-12-01T02:03:46.152Z,0.55
2022-12-01T02:06:12.585Z,0.58
2022-12-01T02:08:39.076Z,0.46
2022-12-01T02:11:06.093Z,0.66
2022-12-01T02:13:54.578Z,0.49
2022-12-01T02:16:20.941Z,0.27
2022-12-01T02:18:55.358Z,0.33
2022-12-01T02:21:21.708Z,0.43
2022-12-01T02:23:51.202Z,0.54
2022-12-01T02:26:36.455Z,0.49
2022-12-01T02:29:21.583Z,0.54
2022-12-01T02:31:57.202Z,0.58
2022-12-01T02:34:28.807Z,0.44
2022-12-01T02:37:00.420Z,0.36
2022-12-01T02:39:33.235Z,0.47
2022-12-01T02:42:34.415Z,0.58
2022-12-01T02:45:02.724Z,0.51
2022-12-01T02:47:29.373Z,0.60
2022-12-01T02:49:57.956Z,0.51
2022-12-01T02:52:26.922Z,0.58
2022-12-01T02:54:53.718Z,0.30
2022-12-01T02:57:23.950Z,0.38
2022-12-01T02:59:52.632Z,0.38
2022-12-01T03:02:28.684Z,0.54
2022-12-01T03:04:58.764Z,0.47
2022-12-01T03:07:37.780Z,0.45
2022-12-01T03:10:09.811Z,0.49
2022-12-01T03:12:46.411Z,0.13
2022-12-01T03:15:18.495Z,0.26
2022-12-01T03:17:49.294Z,0.22
2022-12-01T03:20:25.603Z,0.18
2022-12-01T03:22:56.429Z,0.38
2022-12-01T03:25:24.865Z,0.43
2022-12-01T03:28:20.070Z,0.51
2022-12-01T03:30:43.680Z,0.40
2022-12-01T03:33:12.758Z,0.32
2022-12-01T03:35:41.853Z,0.26
2022-12-01T03:38:12.673Z,0.26
2022-12-01T03:40:39.361Z,0.37
2022-12-01T03:43:10.896Z,0.20
2022-12-01T03:45:50.978Z,0.40
2022-12-01T03:48:17.656Z,0.48
2022-12-01T03:50:49.201Z,0.43
2022-12-01T03:53:21.761Z,0.36
2022-12-01T03:55:51.955Z,0.54
2022-12-01T03:58:20.279Z,0.43
2022-12-01T04:00:49.938Z,0.46
2022-12-01T04:03:45.811Z,-0.25
2022-12-01T04:06:12.162Z,0.27
2022-12-01T04:08:39.238Z,0.17
2022-12-01T04:11:30.965Z,0.18
2022-12-01T04:13:59.036Z,0.19
2022-12-01T04:16:25.372Z,0.22
2022-12-01T04:18:51.903Z,0.20
2022-12-01T04:21:18.306Z,0.18
2022-12-01T04:24:00.116Z,0.06
2022-12-01T04:26:26.953Z,0.13
2022-12-01T04:28:53.358Z,0.20
2022-12-01T04:31:19.717Z,0.23
2022-12-01T04:33:46.169Z,0.33
2022-12-01T04:36:12.544Z,0.28
2022-12-01T04:38:39.043Z,0.17
2022-12-01T04:41:12.107Z,0.45
2022-12-01T04:43:38.615Z,0.33
2022-12-01T04:46:05.509Z,0.23
2022-12-01T04:48:31.828Z,0.43
2022-12-01T04:50:58.247Z,0.29
2022-12-01T04:53:24.634Z,0.38
2022-12-01T04:55:50.944Z,0.19
2022-12-01T04:58:17.321Z,0.30
2022-12-01T05:00:43.779Z,0.30
2022-12-01T05:03:14.841Z,0.42
2022-12-01T05:05:41.609Z,0.36
2022-12-01T05:08:08.133Z,0.27
2022-12-01T05:10:35.666Z,0.28
2022-12-01T05:13:02.548Z,0.30
2022-12-01T05:15:29.053Z,0.40
2022-12-01T05:17:55.506Z,0.45
2022-12-01T05:20:43.346Z,0.38
2022-12-01T05:23:15.246Z,0.38
2022-12-01T05:25:43.328Z,0.35
2022-12-01T05:28:09.665Z,0.14
2022-12-01T05:30:36.144Z,0.05
2022-12-01T05:33:03.450Z,0.28
2022-12-01T05:35:29.817Z,0.27
2022-12-01T05:37:56.303Z,0.13
2022-12-01T05:40:22.701Z,-0.02
2022-12-01T05:42:49.079Z,0.11
2022-12-01T05:45:15.483Z,-0.05
2022-12-01T05:47:41.949Z,0.07
2022-12-01T05:50:08.778Z,-0.04
2022-12-01T05:52:35.494Z,0.25
2022-12-01T05:55:05.221Z,0.14
2022-12-01T05:57:32.273Z,0.22
2022-12-01T05:59:58.853Z,-0.01
2022-12-01T06:02:27.095Z,0.23
2022-12-01T06:05:04.086Z,0.07
2022-12-01T06:07:40.627Z,-0.01
2022-12-01T06:10:10.871Z,0.06
2022-12-01T06:12:41.139Z,0.03
2022-12-01T06:15:08.365Z,0.08
2022-12-01T06:17:40.004Z,0.04
2022-12-01T06:20:07.439Z,-0.01
2022-12-01T06:22:33.928Z,0.23
2022-12-01T06:25:00.259Z,0.16
2022-12-01T06:27:26.814Z,0.03
2022-12-01T06:29:53.524Z,0.06
2022-12-01T06:32:20.187Z,0.07
2022-12-01T06:34:46.536Z,0.13
2022-12-01T06:37:15.585Z,0.16
2022-12-01T06:39:42.027Z,0.03
2022-12-01T06:42:08.464Z,0.02
2022-12-01T06:44:34.933Z,-0.17
2022-12-01T06:47:01.368Z,0.05
2022-12-01T06:49:27.771Z,0.13
2022-12-01T06:51:54.198Z,0.20
2022-12-01T06:54:21.411Z,0.09
2022-12-01T06:56:47.784Z,0.04
2022-12-01T06:59:14.570Z,0.21
2022-12-01T07:01:41.514Z,0.22
2022-12-01T07:04:07.968Z,0.19
2022-12-01T07:06:34.341Z,0.12
2022-12-01T07:09:00.825Z,0.08
2022-12-01T07:11:28.550Z,0.09
2022-12-01T07:13:56.055Z,0.05
2022-12-01T07:16:25.912Z,0.15
2022-12-01T07:18:53.117Z,0.21
2022-12-01T07:21:19.894Z,0.09
2022-12-01T07:23:46.949Z,0.26
2022-12-01T07:26:15.735Z,0.07
2022-12-01T07:28:57.229Z,0.19
2022-12-01T07:31:51.567Z,0.28
2022-12-01T07:34:21.848Z,0.30
2022-12-01T07:51:07.321Z,0.17
2022-12-01T07:53:38.863Z,0.05
2022-12-01T07:56:08.789Z,-0.04
2022-12-01T07:58:40.029Z,0.29
2022-12-01T08:01:12.769Z,0.18
2022-12-01T08:03:39.759Z,0.23
2022-12-01T08:06:07.120Z,0.28
2022-12-01T08:08:34.967Z,0.23
2022-12-01T08:11:20.168Z,0.18
2022-12-01T08:13:47.091Z,0.30
2022-12-01T08:16:15.052Z,0.29
2022-12-01T08:18:42.210Z,0.46
2022-12-01T08:21:10.437Z,0.51
2022-12-01T08:23:36.970Z,0.46
2022-12-01T08:26:04.430Z,0.48
2022-12-01T08:28:31.104Z,0.53
2022-12-01T08:30:57.714Z,0.49
2022-12-01T08:33:24.409Z,0.40
2022-12-01T08:35:51.079Z,0.37
2022-12-01T08:41:55.683Z,0.48
2022-12-01T08:44:29.065Z,0.30
2022-12-01T08:47:58.868Z,0.17
2022-12-01T08:50:13.438Z,0.43
2022-12-01T08:52:40.010Z,0.31
2022-12-01T08:55:06.925Z,0.43
2022-12-01T08:57:33.392Z,0.41
2022-12-01T08:59:59.788Z,0.52
2022-12-01T09:02:26.400Z,0.44
2022-12-01T09:04:52.836Z,0.36
2022-12-01T09:07:24.591Z,0.26
2022-12-01T09:09:52.899Z,0.30
2022-12-01T09:12:21.808Z,0.51
2022-12-01T09:14:49.923Z,0.29
2022-12-01T09:17:17.213Z,0.42
2022-12-01T09:19:46.712Z,0.44
2022-12-01T09:22:14.991Z,0.62
2022-12-01T09:24:41.421Z,0.66
2022-12-01T09:27:09.419Z,0.51
2022-12-01T09:29:36.019Z,0.55
2022-12-01T09:32:02.460Z,0.68
2022-12-01T09:34:29.217Z,0.07
2022-12-01T09:36:58.878Z,0.48
2022-12-01T09:39:25.700Z,0.48
2022-12-01T09:42:00.070Z,0.56
2022-12-01T09:44:37.251Z,0.73
2022-12-01T09:47:04.058Z,0.58
2022-12-01T09:49:43.021Z,0.70
2022-12-01T09:52:18.156Z,0.74
2022-12-01T09:55:05.927Z,0.60
2022-12-01T10:04:10.561Z,0.42
2022-12-01T10:06:42.902Z,0.61
2022-12-01T10:09:34.131Z,0.56
2022-12-01T10:12:04.685Z,0.62
2022-12-01T10:14:55.733Z,0.43
2022-12-01T10:17:33.880Z,0.57
2022-12-01T10:20:06.250Z,0.80
2022-12-01T10:22:45.483Z,0.63
2022-12-01T10:25:28.446Z,0.62
2022-12-01T10:28:06.407Z,0.52
2022-12-01T10:30:39.343Z,0.53
2022-12-01T10:33:17.308Z,0.52
2022-12-01T10:35:44.063Z,0.69
2022-12-01T10:38:19.615Z,0.87
2022-12-01T10:41:35.432Z,0.78
2022-12-01T10:44:10.104Z,0.71
2022-12-01T10:49:46.106Z,0.56
2022-12-01T10:52:38.263Z,0.65
2022-12-01T10:55:24.271Z,0.79
2022-12-01T10:57:51.406Z,0.62
2022-12-01T11:00:57.866Z,0.91
2022-12-01T11:03:39.629Z,0.63
2022-12-01T11:06:11.014Z,0.70
2022-12-01T11:08:45.871Z,0.37
2022-12-01T11:11:31.219Z,0.52
2022-12-01T11:14:16.560Z,0.64
2022-12-01T11:16:45.100Z,0.87
2022-12-01T11:19:27.993Z,0.84
2022-12-01T11:22:14.768Z,0.87
2022-12-01T11:24:46.066Z,0.90
2022-12-01T11:28:04.557Z,0.86
2022-12-01T11:30:34.920Z,0.79
2022-12-01T11:33:28.081Z,0.80
2022-12-01T11:36:18.251Z,0.45
2022-12-01T11:38:51.314Z,0.49
2022-12-01T11:42:07.872Z,0.72
2022-12-01T11:49:41.321Z,0.69
2022-12-01T11:51:39.530Z,1.02
2022-12-01T11:54:20.882Z,1.10
2022-12-01T11:57:32.310Z,0.77
2022-12-01T11:59:54.629Z,0.82
2022-12-01T12:02:30.471Z,0.86
2022-12-01T12:05:10.801Z,0.91
2022-12-01T12:10:59.513Z,0.81
2022-12-01T12:13:26.397Z,0.90
2022-12-01T12:16:01.069Z,0.96
2022-12-01T12:18:35.804Z,0.98
2022-12-01T12:21:05.377Z,1.07
2022-12-01T12:23:47.340Z,0.72
2022-12-01T12:26:22.996Z,0.81
2022-12-01T12:29:16.364Z,0.96
2022-12-01T12:31:44.300Z,1.15
2022-12-01T12:34:22.234Z,0.97
2022-12-01T12:37:09.392Z,1.10
2022-12-01T12:39:36.848Z,1.11
2022-12-01T12:42:24.402Z,1.27
2022-12-01T12:45:08.626Z,0.98
2022-12-01T12:47:43.960Z,1.15
2022-12-01T12:50:18.229Z,0.57
2022-12-01T12:52:59.826Z,1.02
2022-12-01T12:56:06.061Z,0.94
2022-12-01T12:58:42.404Z,0.98
2022-12-01T13:01:38.086Z,1.15
2022-12-01T13:04:14.220Z,1.16
2022-12-01T13:06:49.851Z,1.04
2022-12-01T13:09:33.996Z,1.07
2022-12-01T13:12:12.273Z,0.86
2022-12-01T13:15:04.425Z,0.86
2022-12-01T13:17:55.242Z,0.62
2022-12-01T13:20:28.984Z,0.62
2022-12-01T13:22:58.343Z,0.75
2022-12-01T13:25:30.873Z,0.96
2022-12-01T13:28:05.432Z,0.87
2022-12-01T13:30:36.673Z,0.86
2022-12-01T13:33:05.846Z,1.00
2022-12-01T13:35:35.351Z,0.76
2022-12-01T13:38:22.519Z,0.68
2022-12-01T13:40:49.536Z,0.76
2022-12-01T13:43:21.741Z,0.66
2022-12-01T13:45:58.018Z,0.69
2022-12-01T13:48:44.777Z,0.75
2022-12-01T13:51:13.976Z,0.75
2022-12-01T13:53:55.630Z,0.89
2022-12-01T13:56:27.663Z,0.67
2022-12-01T13:58:54.904Z,0.64
2022-12-01T14:01:21.682Z,0.75
2022-12-01T14:04:03.666Z,0.68
2022-12-01T14:06:36.011Z,0.84
2022-12-01T14:09:06.810Z,0.62
2022-12-01T14:11:34.680Z,0.66
2022-12-01T14:14:12.619Z,0.82
2022-12-01T14:17:05.345Z,0.56
2022-12-01T14:19:34.803Z,0.56
2022-12-01T14:22:02.057Z,0.89
2022-12-01T14:24:34.699Z,0.94
2022-12-01T14:27:01.836Z,0.85
2022-12-01T14:29:28.701Z,0.95
2022-12-01T14:31:55.024Z,0.97
2022-12-01T14:34:26.716Z,0.86
2022-12-01T14:37:05.170Z,0.84
2022-12-01T14:39:36.078Z,0.64
2022-12-01T14:42:05.648Z,0.92
2022-12-01T14:44:35.165Z,0.60
2022-12-01T14:47:22.805Z,0.76
2022-12-01T14:50:14.909Z,0.86
2022-12-01T14:52:46.997Z,0.68
2022-12-01T14:55:22.012Z,0.76
2022-12-01T14:57:54.721Z,0.86
2022-12-01T15:00:34.660Z,0.92
2022-12-01T15:03:06.749Z,0.85
2022-12-01T15:05:39.963Z,0.86
2022-12-01T15:08:40.837Z,0.92
2022-12-01T15:11:10.933Z,0.92
2022-12-01T15:13:54.283Z,0.77
2022-12-01T15:16:27.251Z,0.82
2022-12-01T15:19:21.198Z,0.62
2022-12-01T15:21:47.900Z,1.00
2022-12-01T15:24:54.860Z,0.78
2022-12-01T15:27:42.075Z,0.96
2022-12-01T15:30:22.797Z,0.53
2022-12-01T15:32:56.891Z,0.55
2022-12-01T15:35:42.149Z,0.56
2022-12-01T15:38:15.764Z,0.69
2022-12-01T15:41:06.662Z,0.77
2022-12-01T15:43:49.776Z,0.81
2022-12-01T15:46:24.494Z,0.62
2022-12-01T15:49:06.429Z,0.94
2022-12-01T15:51:36.166Z,0.76
2022-12-01T15:54:03.183Z,0.68
2022-12-01T15:56:36.009Z,0.80
2022-12-01T15:59:27.304Z,0.81
2022-12-01T16:01:54.093Z,0.80
2022-12-01T16:04:22.116Z,0.54
2022-12-01T16:06:54.901Z,0.59
2022-12-01T16:09:43.720Z,0.66
2022-12-01T16:12:17.459Z,0.56
2022-12-01T16:14:54.630Z,0.52
2022-12-01T16:17:22.001Z,0.53
2022-12-01T16:23:10.490Z,0.56
2022-12-01T16:25:39.592Z,0.56
2022-12-01T16:28:07.011Z,0.61
2022-12-01T16:30:38.430Z,0.49
2022-12-01T16:33:07.018Z,0.71
2022-12-01T16:35:36.655Z,0.73
2022-12-01T16:38:11.898Z,0.45
2022-12-01T16:40:40.703Z,0.55
2022-12-01T16:43:12.595Z,0.57
2022-12-01T16:45:38.982Z,0.73
2022-12-01T16:48:09.386Z,0.66
2022-12-01T16:50:36.337Z,0.54
2022-12-01T16:53:02.770Z,0.56
2022-12-01T16:55:37.458Z,0.45
2022-12-01T16:58:04.035Z,0.40
2022-12-01T17:00:30.756Z,0.49
2022-12-01T17:02:57.770Z,0.36
2022-12-01T17:05:24.258Z,0.40
2022-12-01T17:07:50.875Z,0.65
2022-12-01T17:10:17.837Z,0.52
2022-12-01T17:12:44.221Z,0.53
2022-12-01T17:15:10.926Z,0.43
2022-12-01T17:17:37.464Z,0.32
2022-12-01T17:20:04.624Z,0.48
2022-12-01T17:22:31.077Z,0.62
2022-12-01T17:24:57.640Z,0.51
2022-12-01T17:27:25.384Z,0.44
2022-12-01T17:29:51.840Z,0.43
2022-12-01T17:32:18.206Z,0.45
2022-12-01T17:34:44.604Z,0.29
2022-12-01T17:37:12.888Z,0.55
2022-12-01T17:39:42.590Z,0.47
2022-12-01T17:42:08.917Z,0.44
2022-12-01T17:44:35.355Z,0.39
2022-12-01T17:47:01.693Z,0.45
2022-12-01T17:49:28.096Z,0.54
2022-12-01T17:51:54.536Z,0.57
2022-12-01T17:54:21.049Z,0.51
2022-12-01T17:56:48.082Z,0.55
2022-12-01T17:59:14.671Z,0.23
2022-12-01T18:01:43.261Z,0.23
2022-12-01T18:04:09.957Z,0.27
2022-12-01T18:06:36.503Z,0.54
2022-12-01T18:09:03.023Z,0.39
2022-12-01T18:11:29.473Z,0.58
2022-12-01T18:13:55.847Z,0.44
2022-12-01T18:16:24.050Z,0.42
2022-12-01T18:18:50.746Z,0.54
2022-12-01T18:21:19.473Z,0.51
2022-12-01T18:23:50.471Z,0.66
2022-12-01T18:26:17.911Z,0.71
2022-12-01T18:28:44.364Z,0.66
2022-12-01T18:31:12.023Z,0.80
2022-12-01T18:33:39.060Z,0.74
2022-12-01T18:36:05.959Z,0.51
2022-12-01T18:38:32.335Z,0.71
2022-12-01T18:40:59.688Z,0.54
2022-12-01T18:43:27.271Z,0.61
2022-12-01T18:45:53.754Z,0.64
2022-12-01T18:48:20.697Z,0.73
2022-12-01T18:50:47.178Z,0.35
2022-12-01T18:53:13.681Z,0.48
2022-12-01T18:55:40.388Z,0.64
2022-12-01T18:58:07.122Z,0.40
2022-12-01T19:00:33.776Z,0.56
2022-12-01T19:03:00.509Z,0.60
2022-12-01T19:05:27.316Z,0.53
2022-12-01T19:07:54.583Z,0.80
2022-12-01T19:10:21.259Z,0.63
2022-12-01T19:12:47.841Z,0.71
2022-12-01T19:15:19.682Z,0.49
2022-12-01T19:17:46.205Z,0.48
2022-12-01T19:20:12.722Z,0.38
2022-12-01T19:22:39.182Z,0.65
2022-12-01T19:25:06.035Z,0.64
2022-12-01T19:27:32.436Z,0.76
2022-12-01T19:30:02.020Z,0.74
2022-12-01T19:32:30.666Z,0.77
2022-12-01T19:34:57.160Z,0.61
2022-12-01T19:37:23.585Z,0.69
2022-12-01T19:39:50.352Z,0.63
2022-12-01T19:42:16.751Z,0.43
2022-12-01T19:44:43.400Z,0.64
2022-12-01T19:47:10.372Z,0.89
2022-12-01T19:49:37.116Z,0.38
2022-12-01T19:52:06.310Z,0.63
2022-12-01T19:54:34.708Z,0.39
2022-12-01T19:57:01.091Z,0.60
2022-12-01T19:59:27.572Z,0.46
2022-12-01T20:01:56.688Z,0.34
2022-12-01T20:04:23.975Z,0.59
2022-12-01T20:06:50.584Z,0.51
2022-12-01T20:10:05.111Z,0.68
2022-12-01T20:13:15.464Z,0.32
2022-12-01T20:16:29.914Z,0.36
2022-12-01T20:32:47.131Z,0.81
2022-12-01T20:35:20.039Z,0.44
2022-12-01T20:37:53.300Z,0.73
2022-12-01T20:43:29.084Z,0.38
2022-12-01T20:56:23.158Z,0.58
2022-12-01T21:06:10.466Z,0.40
2022-12-01T21:08:48.855Z,0.70
2022-12-01T21:22:13.666Z,0.74
2022-12-01T21:24:54.996Z,0.40
2022-12-01T21:28:08.022Z,0.36
2022-12-01T21:33:29.286Z,0.51
2022-12-01T21:37:58.043Z,0.32
2022-12-01T21:49:27.614Z,0.26
2022-12-01T22:27:19.126Z,0.54
2022-12-01T22:29:51.227Z,0.58
2022-12-01T22:32:27.429Z,0.46
2022-12-01T22:34:56.517Z,0.61
2022-12-01T22:37:35.935Z,0.81
2022-12-01T22:40:22.617Z,0.73
2022-12-01T22:42:57.749Z,0.57
2022-12-01T22:45:54.091Z,0.62
2022-12-01T22:48:36.478Z,0.65
2022-12-01T22:51:16.055Z,0.66
2022-12-01T22:53:44.126Z,0.63
2022-12-01T22:56:43.448Z,0.72
2022-12-01T22:59:14.924Z,0.83
2022-12-01T23:01:49.738Z,0.87
2022-12-01T23:04:35.397Z,0.82
2022-12-01T23:07:06.108Z,0.95
2022-12-01T23:09:40.444Z,0.94
2022-12-01T23:12:09.930Z,1.00
2022-12-01T23:14:39.094Z,0.91
2022-12-01T23:17:07.424Z,0.59
2022-12-01T23:19:34.676Z,0.55
2022-12-01T23:22:01.550Z,0.54
2022-12-01T23:24:33.470Z,0.66
2022-12-01T23:27:00.527Z,0.72
2022-12-01T23:29:27.047Z,0.56
2022-12-01T23:31:53.664Z,0.55
2022-12-01T23:34:20.383Z,0.61
2022-12-01T23:36:48.783Z,0.72
2022-12-01T23:39:15.897Z,0.48
2022-12-01T23:41:43.533Z,0.46
2022-12-01T23:44:22.209Z,0.42
2022-12-01T23:46:50.036Z,0.51
2022-12-01T23:49:19.579Z,0.60
2022-12-01T23:51:51.602Z,0.79
2022-12-01T23:54:21.219Z,0.83
2022-12-01T23:56:50.185Z,0.65
2022-12-01T23:59:16.674Z,0.68
